sensor_id;sensor_type;location;lat;lon;timestamp;P1;durP1;ratioP1;P2;durP2;ratioP2
40256;SDS011;25977;45.462;9.210;2022-10-30T00:00:40;22.95;;;13.10;;
40256;SDS011;25977;45.462;9.210;2022-10-30T00:03:08;28.63;;;12.80;;
40256;SDS011;25977;45.462;9.210;2022-10-30T00:05:35;24.55;;;10.15;;
40256;SDS011;25977;45.462;9.210;2022-10-30T00:08:04;21.10;;;10.20;;
40256;SDS011;25977;45.462;9.210;2022-10-30T00:10:29;19.20;;;9.80;;
40256;SDS011;25977;45.462;9.210;2022-10-30T00:12:55;18.85;;;10.43;;
40256;SDS011;25977;45.462;9.210;2022-10-30T00:15:22;33.00;;;12.48;;
40256;SDS011;25977;45.462;9.210;2022-10-30T00:17:47;16.63;;;10.82;;
40256;SDS011;25977;45.462;9.210;2022-10-30T00:20:13;22.13;;;10.73;;
40256;SDS011;25977;45.462;9.210;2022-10-30T00:22:39;19.65;;;10.55;;
40256;SDS011;25977;45.462;9.210;2022-10-30T00:25:04;19.48;;;10.90;;
40256;SDS011;25977;45.462;9.210;2022-10-30T00:27:30;20.17;;;10.40;;
40256;SDS011;25977;45.462;9.210;2022-10-30T00:29:56;19.63;;;11.18;;
40256;SDS011;25977;45.462;9.210;2022-10-30T00:32:22;19.83;;;11.00;;
40256;SDS011;25977;45.462;9.210;2022-10-30T00:34:47;20.73;;;10.57;;
40256;SDS011;25977;45.462;9.210;2022-10-30T00:37:13;23.17;;;10.10;;
40256;SDS011;25977;45.462;9.210;2022-10-30T00:39:39;18.92;;;11.43;;
40256;SDS011;25977;45.462;9.210;2022-10-30T00:42:08;16.83;;;10.35;;
40256;SDS011;25977;45.462;9.210;2022-10-30T00:44:46;19.35;;;10.55;;
40256;SDS011;25977;45.462;9.210;2022-10-30T00:49:48;17.77;;;9.73;;
40256;SDS011;25977;45.462;9.210;2022-10-30T00:52:16;16.42;;;9.80;;
40256;SDS011;25977;45.462;9.210;2022-10-30T00:54:44;21.35;;;9.88;;
40256;SDS011;25977;45.462;9.210;2022-10-30T00:57:11;18.63;;;10.45;;
40256;SDS011;25977;45.462;9.210;2022-10-30T00:59:38;17.25;;;9.95;;
40256;SDS011;25977;45.462;9.210;2022-10-30T01:02:04;16.63;;;9.82;;
40256;SDS011;25977;45.462;9.210;2022-10-30T01:04:32;24.08;;;11.77;;
40256;SDS011;25977;45.462;9.210;2022-10-30T01:07:01;19.92;;;9.32;;
40256;SDS011;25977;45.462;9.210;2022-10-30T01:09:39;18.98;;;10.30;;
40256;SDS011;25977;45.462;9.210;2022-10-30T01:12:05;14.63;;;10.30;;
40256;SDS011;25977;45.462;9.210;2022-10-30T01:14:32;20.20;;;9.95;;
40256;SDS011;25977;45.462;9.210;2022-10-30T01:26:25;21.38;;;10.40;;
40256;SDS011;25977;45.462;9.210;2022-10-30T01:28:56;14.63;;;9.55;;
40256;SDS011;25977;45.462;9.210;2022-10-30T01:37:23;14.65;;;9.95;;
40256;SDS011;25977;45.462;9.210;2022-10-30T01:40:12;17.05;;;9.85;;
40256;SDS011;25977;45.462;9.210;2022-10-30T01:45:21;15.55;;;10.25;;
40256;SDS011;25977;45.462;9.210;2022-10-30T01:51:02;12.85;;;8.80;;
40256;SDS011;25977;45.462;9.210;2022-10-30T02:02:11;13.30;;;8.77;;
40256;SDS011;25977;45.462;9.210;2022-10-30T02:04:37;20.77;;;10.15;;
40256;SDS011;25977;45.462;9.210;2022-10-30T02:07:04;17.77;;;9.43;;
40256;SDS011;25977;45.462;9.210;2022-10-30T02:09:36;23.58;;;9.60;;
40256;SDS011;25977;45.462;9.210;2022-10-30T02:12:05;18.85;;;10.63;;
40256;SDS011;25977;45.462;9.210;2022-10-30T02:14:33;19.27;;;9.23;;
40256;SDS011;25977;45.462;9.210;2022-10-30T02:17:06;17.63;;;10.73;;
40256;SDS011;25977;45.462;9.210;2022-10-30T02:19:33;17.38;;;9.38;;
40256;SDS011;25977;45.462;9.210;2022-10-30T02:22:01;19.38;;;9.95;;
40256;SDS011;25977;45.462;9.210;2022-10-30T02:24:27;23.85;;;10.13;;
40256;SDS011;25977;45.462;9.210;2022-10-30T02:26:55;14.32;;;8.60;;
40256;SDS011;25977;45.462;9.210;2022-10-30T02:29:21;15.73;;;9.70;;
40256;SDS011;25977;45.462;9.210;2022-10-30T02:31:47;17.90;;;9.05;;
40256;SDS011;25977;45.462;9.210;2022-10-30T02:34:14;20.05;;;9.43;;
40256;SDS011;25977;45.462;9.210;2022-10-30T02:36:40;24.38;;;10.43;;
40256;SDS011;25977;45.462;9.210;2022-10-30T02:39:06;16.70;;;10.15;;
40256;SDS011;25977;45.462;9.210;2022-10-30T02:41:33;17.35;;;9.13;;
40256;SDS011;25977;45.462;9.210;2022-10-30T02:43:59;15.98;;;8.43;;
40256;SDS011;25977;45.462;9.210;2022-10-30T02:46:28;16.80;;;8.95;;
40256;SDS011;25977;45.462;9.210;2022-10-30T02:48:54;15.63;;;9.15;;
40256;SDS011;25977;45.462;9.210;2022-10-30T02:51:19;18.02;;;8.65;;
40256;SDS011;25977;45.462;9.210;2022-10-30T02:53:46;16.98;;;9.52;;
40256;SDS011;25977;45.462;9.210;2022-10-30T02:56:12;17.80;;;8.90;;
40256;SDS011;25977;45.462;9.210;2022-10-30T02:58:40;14.18;;;8.18;;
40256;SDS011;25977;45.462;9.210;2022-10-30T03:01:07;12.05;;;7.85;;
40256;SDS011;25977;45.462;9.210;2022-10-30T03:03:34;14.07;;;8.50;;
40256;SDS011;25977;45.462;9.210;2022-10-30T03:06:02;17.67;;;8.98;;
40256;SDS011;25977;45.462;9.210;2022-10-30T03:08:29;17.20;;;9.68;;
40256;SDS011;25977;45.462;9.210;2022-10-30T03:11:00;15.30;;;9.98;;
40256;SDS011;25977;45.462;9.210;2022-10-30T03:13:34;17.27;;;8.90;;
40256;SDS011;25977;45.462;9.210;2022-10-30T03:16:03;18.40;;;8.70;;
40256;SDS011;25977;45.462;9.210;2022-10-30T03:18:57;17.30;;;9.18;;
40256;SDS011;25977;45.462;9.210;2022-10-30T03:21:25;14.93;;;8.23;;
40256;SDS011;25977;45.462;9.210;2022-10-30T03:23:52;17.20;;;8.68;;
40256;SDS011;25977;45.462;9.210;2022-10-30T03:26:18;15.02;;;9.20;;
40256;SDS011;25977;45.462;9.210;2022-10-30T03:28:48;21.15;;;9.13;;
40256;SDS011;25977;45.462;9.210;2022-10-30T03:31:15;23.55;;;9.63;;
40256;SDS011;25977;45.462;9.210;2022-10-30T03:33:43;15.45;;;9.10;;
40256;SDS011;25977;45.462;9.210;2022-10-30T03:36:11;12.13;;;8.73;;
40256;SDS011;25977;45.462;9.210;2022-10-30T03:38:38;18.40;;;8.90;;
40256;SDS011;25977;45.462;9.210;2022-10-30T03:41:04;15.07;;;8.68;;
40256;SDS011;25977;45.462;9.210;2022-10-30T03:43:30;14.40;;;7.93;;
40256;SDS011;25977;45.462;9.210;2022-10-30T03:45:56;18.20;;;8.13;;
40256;SDS011;25977;45.462;9.210;2022-10-30T03:48:23;22.42;;;8.25;;
40256;SDS011;25977;45.462;9.210;2022-10-30T03:50:52;14.10;;;7.63;;
40256;SDS011;25977;45.462;9.210;2022-10-30T03:53:22;16.20;;;8.43;;
40256;SDS011;25977;45.462;9.210;2022-10-30T03:55:57;17.38;;;8.73;;
40256;SDS011;25977;45.462;9.210;2022-10-30T03:58:35;19.60;;;9.00;;
40256;SDS011;25977;45.462;9.210;2022-10-30T04:01:04;12.02;;;7.47;;
40256;SDS011;25977;45.462;9.210;2022-10-30T04:03:34;12.07;;;7.78;;
40256;SDS011;25977;45.462;9.210;2022-10-30T04:06:00;17.30;;;8.50;;
40256;SDS011;25977;45.462;9.210;2022-10-30T04:08:27;13.05;;;7.03;;
40256;SDS011;25977;45.462;9.210;2022-10-30T04:10:53;14.55;;;8.93;;
40256;SDS011;25977;45.462;9.210;2022-10-30T04:13:19;16.08;;;7.88;;
40256;SDS011;25977;45.462;9.210;2022-10-30T04:15:49;14.02;;;8.18;;
40256;SDS011;25977;45.462;9.210;2022-10-30T04:18:18;11.70;;;7.55;;
40256;SDS011;25977;45.462;9.210;2022-10-30T04:20:45;18.42;;;7.68;;
40256;SDS011;25977;45.462;9.210;2022-10-30T04:23:14;17.63;;;8.32;;
40256;SDS011;25977;45.462;9.210;2022-10-30T04:25:41;11.30;;;8.05;;
40256;SDS011;25977;45.462;9.210;2022-10-30T04:28:07;14.85;;;7.88;;
40256;SDS011;25977;45.462;9.210;2022-10-30T04:30:33;18.75;;;7.65;;
40256;SDS011;25977;45.462;9.210;2022-10-30T04:33:01;15.70;;;8.40;;
40256;SDS011;25977;45.462;9.210;2022-10-30T04:35:30;12.05;;;7.30;;
40256;SDS011;25977;45.462;9.210;2022-10-30T04:38:01;13.23;;;7.43;;
40256;SDS011;25977;45.462;9.210;2022-10-30T04:40:31;14.63;;;8.18;;
40256;SDS011;25977;45.462;9.210;2022-10-30T04:43:02;20.70;;;8.60;;
40256;SDS011;25977;45.462;9.210;2022-10-30T04:45:28;18.70;;;9.50;;
40256;SDS011;25977;45.462;9.210;2022-10-30T04:48:01;12.95;;;8.40;;
40256;SDS011;25977;45.462;9.210;2022-10-30T04:50:37;15.43;;;7.57;;
40256;SDS011;25977;45.462;9.210;2022-10-30T04:53:04;14.05;;;9.38;;
40256;SDS011;25977;45.462;9.210;2022-10-30T04:55:32;16.90;;;9.20;;
40256;SDS011;25977;45.462;9.210;2022-10-30T04:57:58;15.68;;;8.25;;
40256;SDS011;25977;45.462;9.210;2022-10-30T05:00:29;13.30;;;8.65;;
40256;SDS011;25977;45.462;9.210;2022-10-30T05:03:03;15.93;;;8.55;;
40256;SDS011;25977;45.462;9.210;2022-10-30T05:05:30;12.80;;;8.77;;
40256;SDS011;25977;45.462;9.210;2022-10-30T05:07:56;14.38;;;8.48;;
40256;SDS011;25977;45.462;9.210;2022-10-30T05:10:22;14.85;;;8.60;;
40256;SDS011;25977;45.462;9.210;2022-10-30T05:12:50;12.25;;;8.40;;
40256;SDS011;25977;45.462;9.210;2022-10-30T05:15:16;14.10;;;8.93;;
40256;SDS011;25977;45.462;9.210;2022-10-30T05:17:43;14.27;;;8.45;;
40256;SDS011;25977;45.462;9.210;2022-10-30T05:20:09;16.20;;;9.10;;
40256;SDS011;25977;45.462;9.210;2022-10-30T05:22:35;16.00;;;8.15;;
40256;SDS011;25977;45.462;9.210;2022-10-30T05:25:01;19.33;;;9.25;;
40256;SDS011;25977;45.462;9.210;2022-10-30T05:27:27;16.48;;;8.95;;
40256;SDS011;25977;45.462;9.210;2022-10-30T05:29:54;14.10;;;7.75;;
40256;SDS011;25977;45.462;9.210;2022-10-30T05:32:20;15.63;;;8.48;;
40256;SDS011;25977;45.462;9.210;2022-10-30T05:34:47;14.70;;;8.48;;
40256;SDS011;25977;45.462;9.210;2022-10-30T05:37:17;14.23;;;9.05;;
40256;SDS011;25977;45.462;9.210;2022-10-30T05:39:44;14.23;;;9.05;;
40256;SDS011;25977;45.462;9.210;2022-10-30T05:42:21;15.38;;;8.85;;
40256;SDS011;25977;45.462;9.210;2022-10-30T05:44:47;15.98;;;9.15;;
40256;SDS011;25977;45.462;9.210;2022-10-30T05:47:15;11.90;;;8.32;;
40256;SDS011;25977;45.462;9.210;2022-10-30T05:49:44;13.32;;;8.70;;
40256;SDS011;25977;45.462;9.210;2022-10-30T05:52:15;14.40;;;9.18;;
40256;SDS011;25977;45.462;9.210;2022-10-30T05:54:41;16.85;;;9.05;;
40256;SDS011;25977;45.462;9.210;2022-10-30T05:57:27;15.25;;;8.63;;
40256;SDS011;25977;45.462;9.210;2022-10-30T05:59:54;20.58;;;10.38;;
40256;SDS011;25977;45.462;9.210;2022-10-30T06:02:20;11.80;;;8.07;;
40256;SDS011;25977;45.462;9.210;2022-10-30T06:04:46;17.83;;;8.73;;
40256;SDS011;25977;45.462;9.210;2022-10-30T06:07:13;13.10;;;7.88;;
40256;SDS011;25977;45.462;9.210;2022-10-30T06:09:38;15.80;;;9.32;;
40256;SDS011;25977;45.462;9.210;2022-10-30T06:12:36;13.40;;;8.73;;
40256;SDS011;25977;45.462;9.210;2022-10-30T06:15:11;19.75;;;10.13;;
40256;SDS011;25977;45.462;9.210;2022-10-30T06:17:36;13.60;;;8.13;;
40256;SDS011;25977;45.462;9.210;2022-10-30T06:20:13;15.07;;;7.82;;
40256;SDS011;25977;45.462;9.210;2022-10-30T06:23:00;14.38;;;7.68;;
40256;SDS011;25977;45.462;9.210;2022-10-30T06:25:57;14.60;;;9.25;;
40256;SDS011;25977;45.462;9.210;2022-10-30T06:28:43;16.45;;;8.63;;
40256;SDS011;25977;45.462;9.210;2022-10-30T06:31:10;15.00;;;8.32;;
40256;SDS011;25977;45.462;9.210;2022-10-30T06:33:37;10.07;;;7.70;;
40256;SDS011;25977;45.462;9.210;2022-10-30T06:36:03;13.52;;;7.50;;
40256;SDS011;25977;45.462;9.210;2022-10-30T06:38:29;13.95;;;7.50;;
40256;SDS011;25977;45.462;9.210;2022-10-30T06:40:54;11.55;;;7.18;;
40256;SDS011;25977;45.462;9.210;2022-10-30T06:43:38;10.52;;;6.78;;
40256;SDS011;25977;45.462;9.210;2022-10-30T06:46:10;13.48;;;7.40;;
40256;SDS011;25977;45.462;9.210;2022-10-30T06:48:38;12.38;;;6.00;;
40256;SDS011;25977;45.462;9.210;2022-10-30T06:51:04;11.40;;;7.20;;
40256;SDS011;25977;45.462;9.210;2022-10-30T06:53:34;13.50;;;7.35;;
40256;SDS011;25977;45.462;9.210;2022-10-30T06:56:20;9.40;;;7.38;;
40256;SDS011;25977;45.462;9.210;2022-10-30T06:59:18;14.10;;;6.82;;
40256;SDS011;25977;45.462;9.210;2022-10-30T07:01:49;15.53;;;7.17;;
40256;SDS011;25977;45.462;9.210;2022-10-30T07:04:24;14.95;;;7.03;;
40256;SDS011;25977;45.462;9.210;2022-10-30T07:06:50;12.80;;;7.25;;
40256;SDS011;25977;45.462;9.210;2022-10-30T07:09:19;13.23;;;6.30;;
40256;SDS011;25977;45.462;9.210;2022-10-30T07:11:46;12.55;;;6.78;;
40256;SDS011;25977;45.462;9.210;2022-10-30T07:14:23;12.63;;;6.82;;
40256;SDS011;25977;45.462;9.210;2022-10-30T07:17:10;15.45;;;6.63;;
40256;SDS011;25977;45.462;9.210;2022-10-30T07:19:37;15.45;;;6.38;;
40256;SDS011;25977;45.462;9.210;2022-10-30T07:22:04;9.13;;;5.93;;
40256;SDS011;25977;45.462;9.210;2022-10-30T07:24:31;15.40;;;6.35;;
40256;SDS011;25977;45.462;9.210;2022-10-30T07:27:13;7.25;;;5.45;;
40256;SDS011;25977;45.462;9.210;2022-10-30T07:29:43;10.13;;;6.78;;
40256;SDS011;25977;45.462;9.210;2022-10-30T07:32:14;13.80;;;6.60;;
40256;SDS011;25977;45.462;9.210;2022-10-30T07:35:05;10.15;;;5.93;;
40256;SDS011;25977;45.462;9.210;2022-10-30T07:37:41;10.07;;;5.63;;
40256;SDS011;25977;45.462;9.210;2022-10-30T07:40:11;7.13;;;5.15;;
40256;SDS011;25977;45.462;9.210;2022-10-30T07:42:48;10.00;;;5.68;;
40256;SDS011;25977;45.462;9.210;2022-10-30T07:45:45;8.25;;;6.03;;
40256;SDS011;25977;45.462;9.210;2022-10-30T07:48:32;6.65;;;5.50;;
40256;SDS011;25977;45.462;9.210;2022-10-30T07:51:03;15.60;;;5.57;;
40256;SDS011;25977;45.462;9.210;2022-10-30T07:53:29;8.93;;;5.63;;
40256;SDS011;25977;45.462;9.210;2022-10-30T07:55:56;13.27;;;7.43;;
40256;SDS011;25977;45.462;9.210;2022-10-30T07:58:40;8.65;;;6.43;;
40256;SDS011;25977;45.462;9.210;2022-10-30T08:01:31;7.15;;;5.15;;
40256;SDS011;25977;45.462;9.210;2022-10-30T08:04:08;10.73;;;6.32;;
40256;SDS011;25977;45.462;9.210;2022-10-30T08:06:36;13.15;;;6.60;;
40256;SDS011;25977;45.462;9.210;2022-10-30T08:09:01;7.43;;;6.28;;
40256;SDS011;25977;45.462;9.210;2022-10-30T08:11:28;9.63;;;6.50;;
40256;SDS011;25977;45.462;9.210;2022-10-30T08:13:55;7.15;;;5.57;;
40256;SDS011;25977;45.462;9.210;2022-10-30T08:16:21;7.55;;;6.40;;
40256;SDS011;25977;45.462;9.210;2022-10-30T08:18:48;10.50;;;7.07;;
40256;SDS011;25977;45.462;9.210;2022-10-30T08:21:18;9.27;;;6.30;;
40256;SDS011;25977;45.462;9.210;2022-10-30T08:23:54;10.38;;;7.03;;
40256;SDS011;25977;45.462;9.210;2022-10-30T08:26:20;8.95;;;6.32;;
40256;SDS011;25977;45.462;9.210;2022-10-30T08:28:46;8.75;;;6.32;;
40256;SDS011;25977;45.462;9.210;2022-10-30T08:31:13;12.68;;;6.70;;
40256;SDS011;25977;45.462;9.210;2022-10-30T08:33:57;8.40;;;6.10;;
40256;SDS011;25977;45.462;9.210;2022-10-30T08:36:30;10.23;;;5.63;;
40256;SDS011;25977;45.462;9.210;2022-10-30T08:38:56;13.07;;;6.07;;
40256;SDS011;25977;45.462;9.210;2022-10-30T08:41:47;11.38;;;7.60;;
40256;SDS011;25977;45.462;9.210;2022-10-30T08:44:12;13.27;;;5.60;;
40256;SDS011;25977;45.462;9.210;2022-10-30T08:46:58;8.65;;;5.90;;
40256;SDS011;25977;45.462;9.210;2022-10-30T08:49:24;15.02;;;6.05;;
40256;SDS011;25977;45.462;9.210;2022-10-30T08:51:53;7.03;;;5.10;;
40256;SDS011;25977;45.462;9.210;2022-10-30T08:54:19;19.02;;;6.25;;
40256;SDS011;25977;45.462;9.210;2022-10-30T08:56:45;12.27;;;6.63;;
40256;SDS011;25977;45.462;9.210;2022-10-30T08:59:11;7.47;;;5.47;;
40256;SDS011;25977;45.462;9.210;2022-10-30T09:01:37;9.45;;;6.93;;
40256;SDS011;25977;45.462;9.210;2022-10-30T09:04:18;8.93;;;5.47;;
40256;SDS011;25977;45.462;9.210;2022-10-30T09:06:44;12.18;;;5.80;;
40256;SDS011;25977;45.462;9.210;2022-10-30T09:09:29;10.10;;;5.80;;
40256;SDS011;25977;45.462;9.210;2022-10-30T09:11:59;12.00;;;6.05;;
40256;SDS011;25977;45.462;9.210;2022-10-30T09:14:25;10.18;;;5.68;;
40256;SDS011;25977;45.462;9.210;2022-10-30T09:16:51;7.90;;;5.78;;
40256;SDS011;25977;45.462;9.210;2022-10-30T09:19:20;9.63;;;5.47;;
40256;SDS011;25977;45.462;9.210;2022-10-30T09:21:47;13.57;;;5.63;;
40256;SDS011;25977;45.462;9.210;2022-10-30T09:24:13;10.10;;;4.93;;
40256;SDS011;25977;45.462;9.210;2022-10-30T09:26:38;15.15;;;5.03;;
40256;SDS011;25977;45.462;9.210;2022-10-30T09:29:11;6.43;;;4.35;;
40256;SDS011;25977;45.462;9.210;2022-10-30T09:31:37;7.20;;;5.60;;
40256;SDS011;25977;45.462;9.210;2022-10-30T09:34:06;8.95;;;5.78;;
40256;SDS011;25977;45.462;9.210;2022-10-30T09:36:55;10.43;;;5.28;;
40256;SDS011;25977;45.462;9.210;2022-10-30T09:39:22;8.20;;;5.68;;
40256;SDS011;25977;45.462;9.210;2022-10-30T09:47:29;9.95;;;5.72;;
40256;SDS011;25977;45.462;9.210;2022-10-30T09:50:30;10.68;;;5.10;;
40256;SDS011;25977;45.462;9.210;2022-10-30T09:56:08;13.40;;;6.38;;
40256;SDS011;25977;45.462;9.210;2022-10-30T09:58:55;11.88;;;6.13;;
40256;SDS011;25977;45.462;9.210;2022-10-30T10:01:32;7.00;;;5.00;;
40256;SDS011;25977;45.462;9.210;2022-10-30T10:04:05;9.90;;;5.63;;
40256;SDS011;25977;45.462;9.210;2022-10-30T10:07:03;20.80;;;5.68;;
40256;SDS011;25977;45.462;9.210;2022-10-30T10:09:59;11.27;;;6.15;;
40256;SDS011;25977;45.462;9.210;2022-10-30T10:12:46;14.57;;;8.18;;
40256;SDS011;25977;45.462;9.210;2022-10-30T10:17:40;14.20;;;7.30;;
40256;SDS011;25977;45.462;9.210;2022-10-30T10:20:14;23.20;;;7.80;;
40256;SDS011;25977;45.462;9.210;2022-10-30T10:22:43;9.15;;;7.10;;
40256;SDS011;25977;45.462;9.210;2022-10-30T10:25:15;15.65;;;9.55;;
40256;SDS011;25977;45.462;9.210;2022-10-30T10:30:15;11.82;;;7.55;;
40256;SDS011;25977;45.462;9.210;2022-10-30T10:35:52;14.10;;;8.40;;
40256;SDS011;25977;45.462;9.210;2022-10-30T10:38:35;11.45;;;7.80;;
40256;SDS011;25977;45.462;9.210;2022-10-30T10:44:27;9.57;;;6.78;;
40256;SDS011;25977;45.462;9.210;2022-10-30T10:47:07;13.43;;;6.68;;
40256;SDS011;25977;45.462;9.210;2022-10-30T10:49:56;18.27;;;7.70;;
40256;SDS011;25977;45.462;9.210;2022-10-30T10:55:39;10.75;;;6.45;;
40256;SDS011;25977;45.462;9.210;2022-10-30T11:01:11;12.15;;;6.70;;
40256;SDS011;25977;45.462;9.210;2022-10-30T11:06:21;9.43;;;6.38;;
40256;SDS011;25977;45.462;9.210;2022-10-30T11:08:51;9.75;;;6.85;;
40256;SDS011;25977;45.462;9.210;2022-10-30T11:11:25;15.18;;;6.60;;
40256;SDS011;25977;45.462;9.210;2022-10-30T11:13:51;12.13;;;6.50;;
40256;SDS011;25977;45.462;9.210;2022-10-30T11:16:28;10.32;;;6.88;;
40256;SDS011;25977;45.462;9.210;2022-10-30T11:19:02;15.45;;;7.53;;
40256;SDS011;25977;45.462;9.210;2022-10-30T11:21:33;14.13;;;7.30;;
40256;SDS011;25977;45.462;9.210;2022-10-30T11:24:24;9.70;;;6.65;;
40256;SDS011;25977;45.462;9.210;2022-10-30T11:29:58;20.60;;;6.93;;
40256;SDS011;25977;45.462;9.210;2022-10-30T11:32:30;13.93;;;7.27;;
40256;SDS011;25977;45.462;9.210;2022-10-30T11:37:32;9.30;;;6.63;;
40256;SDS011;25977;45.462;9.210;2022-10-30T11:40:03;11.95;;;5.60;;
40256;SDS011;25977;45.462;9.210;2022-10-30T11:43:00;9.18;;;6.55;;
40256;SDS011;25977;45.462;9.210;2022-10-30T11:45:37;11.95;;;6.07;;
40256;SDS011;25977;45.462;9.210;2022-10-30T11:48:09;12.27;;;6.75;;
40256;SDS011;25977;45.462;9.210;2022-10-30T11:50:48;11.93;;;5.35;;
40256;SDS011;25977;45.462;9.210;2022-10-30T11:53:18;14.90;;;5.15;;
40256;SDS011;25977;45.462;9.210;2022-10-30T11:55:47;11.07;;;5.45;;
40256;SDS011;25977;45.462;9.210;2022-10-30T12:01:00;8.48;;;4.57;;
40256;SDS011;25977;45.462;9.210;2022-10-30T12:03:39;11.57;;;5.50;;
40256;SDS011;25977;45.462;9.210;2022-10-30T12:06:27;17.88;;;6.28;;
40256;SDS011;25977;45.462;9.210;2022-10-30T12:09:35;7.32;;;4.82;;
40256;SDS011;25977;45.462;9.210;2022-10-30T12:11:45;12.25;;;6.22;;
40256;SDS011;25977;45.462;9.210;2022-10-30T12:14:21;9.88;;;5.78;;
40256;SDS011;25977;45.462;9.210;2022-10-30T12:16:49;11.40;;;5.43;;
40256;SDS011;25977;45.462;9.210;2022-10-30T12:19:16;8.43;;;5.00;;
40256;SDS011;25977;45.462;9.210;2022-10-30T12:21:46;10.35;;;5.45;;
40256;SDS011;25977;45.462;9.210;2022-10-30T12:24:18;4.65;;;4.25;;
40256;SDS011;25977;45.462;9.210;2022-10-30T12:26:48;12.18;;;5.22;;
40256;SDS011;25977;45.462;9.210;2022-10-30T12:29:17;13.82;;;5.55;;
40256;SDS011;25977;45.462;9.210;2022-10-30T12:31:54;11.85;;;5.18;;
40256;SDS011;25977;45.462;9.210;2022-10-30T12:34:37;7.97;;;4.45;;
40256;SDS011;25977;45.462;9.210;2022-10-30T12:45:41;6.13;;;3.88;;
40256;SDS011;25977;45.462;9.210;2022-10-30T12:48:15;15.98;;;4.68;;
40256;SDS011;25977;45.462;9.210;2022-10-30T12:56:17;18.38;;;5.55;;
40256;SDS011;25977;45.462;9.210;2022-10-30T13:01:37;10.05;;;3.63;;
40256;SDS011;25977;45.462;9.210;2022-10-30T13:04:19;11.75;;;4.03;;
40256;SDS011;25977;45.462;9.210;2022-10-30T13:06:49;8.25;;;3.95;;
40256;SDS011;25977;45.462;9.210;2022-10-30T13:09:36;8.43;;;3.97;;
40256;SDS011;25977;45.462;9.210;2022-10-30T13:12:13;11.55;;;4.30;;
40256;SDS011;25977;45.462;9.210;2022-10-30T13:14:51;7.55;;;4.43;;
40256;SDS011;25977;45.462;9.210;2022-10-30T13:17:20;12.23;;;3.67;;
40256;SDS011;25977;45.462;9.210;2022-10-30T13:19:46;10.75;;;5.25;;
40256;SDS011;25977;45.462;9.210;2022-10-30T13:25:09;10.55;;;3.65;;
40256;SDS011;25977;45.462;9.210;2022-10-30T13:28:41;7.82;;;3.75;;
40256;SDS011;25977;45.462;9.210;2022-10-30T13:30:58;15.77;;;3.95;;
40256;SDS011;25977;45.462;9.210;2022-10-30T13:33:45;9.47;;;3.33;;
40256;SDS011;25977;45.462;9.210;2022-10-30T13:39:16;5.90;;;3.15;;
40256;SDS011;25977;45.462;9.210;2022-10-30T13:44:43;9.65;;;3.55;;
40256;SDS011;25977;45.462;9.210;2022-10-30T13:55:33;9.35;;;3.53;;
40256;SDS011;25977;45.462;9.210;2022-10-30T13:58:02;8.77;;;4.00;;
40256;SDS011;25977;45.462;9.210;2022-10-30T14:00:51;9.65;;;3.35;;
40256;SDS011;25977;45.462;9.210;2022-10-30T14:11:32;6.28;;;3.10;;
40256;SDS011;25977;45.462;9.210;2022-10-30T14:14:04;12.98;;;3.58;;
40256;SDS011;25977;45.462;9.210;2022-10-30T14:17:28;7.18;;;2.72;;
40256;SDS011;25977;45.462;9.210;2022-10-30T14:22:31;6.68;;;2.97;;
40256;SDS011;25977;45.462;9.210;2022-10-30T14:24:59;6.72;;;3.47;;
40256;SDS011;25977;45.462;9.210;2022-10-30T14:27:26;9.60;;;3.92;;
40256;SDS011;25977;45.462;9.210;2022-10-30T14:29:57;13.18;;;4.03;;
40256;SDS011;25977;45.462;9.210;2022-10-30T14:43:08;13.10;;;3.53;;
40256;SDS011;25977;45.462;9.210;2022-10-30T14:45:46;4.47;;;2.92;;
40256;SDS011;25977;45.462;9.210;2022-10-30T14:51:04;9.20;;;3.65;;
40256;SDS011;25977;45.462;9.210;2022-10-30T14:53:57;8.13;;;3.28;;
40256;SDS011;25977;45.462;9.210;2022-10-30T15:01:42;9.18;;;3.42;;
40256;SDS011;25977;45.462;9.210;2022-10-30T15:07:42;9.48;;;3.08;;
40256;SDS011;25977;45.462;9.210;2022-10-30T15:10:20;7.03;;;3.50;;
40256;SDS011;25977;45.462;9.210;2022-10-30T15:13:11;6.77;;;3.07;;
40256;SDS011;25977;45.462;9.210;2022-10-30T15:15:43;6.68;;;3.65;;
40256;SDS011;25977;45.462;9.210;2022-10-30T15:18:14;8.48;;;3.10;;
40256;SDS011;25977;45.462;9.210;2022-10-30T15:20:43;8.10;;;3.38;;
40256;SDS011;25977;45.462;9.210;2022-10-30T15:23:26;7.35;;;3.70;;
40256;SDS011;25977;45.462;9.210;2022-10-30T15:25:55;10.77;;;3.95;;
40256;SDS011;25977;45.462;9.210;2022-10-30T15:28:25;9.35;;;5.13;;
40256;SDS011;25977;45.462;9.210;2022-10-30T15:31:04;12.15;;;3.97;;
40256;SDS011;25977;45.462;9.210;2022-10-30T15:33:42;9.15;;;4.68;;
40256;SDS011;25977;45.462;9.210;2022-10-30T15:36:18;20.05;;;4.85;;
40256;SDS011;25977;45.462;9.210;2022-10-30T15:41:32;19.15;;;5.60;;
40256;SDS011;25977;45.462;9.210;2022-10-30T15:44:02;7.97;;;4.47;;
40256;SDS011;25977;45.462;9.210;2022-10-30T15:46:29;9.73;;;4.88;;
40256;SDS011;25977;45.462;9.210;2022-10-30T15:48:55;7.30;;;4.22;;
40256;SDS011;25977;45.462;9.210;2022-10-30T15:51:21;14.10;;;4.43;;
40256;SDS011;25977;45.462;9.210;2022-10-30T15:53:50;10.73;;;5.25;;
40256;SDS011;25977;45.462;9.210;2022-10-30T15:56:30;9.43;;;4.70;;
40256;SDS011;25977;45.462;9.210;2022-10-30T15:59:05;13.05;;;4.35;;
40256;SDS011;25977;45.462;9.210;2022-10-30T16:01:43;11.32;;;5.43;;
40256;SDS011;25977;45.462;9.210;2022-10-30T16:04:52;12.88;;;5.40;;
40256;SDS011;25977;45.462;9.210;2022-10-30T16:07:00;12.85;;;6.35;;
40256;SDS011;25977;45.462;9.210;2022-10-30T16:09:35;10.73;;;4.50;;
40256;SDS011;25977;45.462;9.210;2022-10-30T16:12:01;9.45;;;4.85;;
40256;SDS011;25977;45.462;9.210;2022-10-30T16:14:28;14.50;;;4.95;;
40256;SDS011;25977;45.462;9.210;2022-10-30T16:16:59;11.15;;;4.88;;
40256;SDS011;25977;45.462;9.210;2022-10-30T16:19:27;18.63;;;4.70;;
40256;SDS011;25977;45.462;9.210;2022-10-30T16:21:55;12.00;;;5.20;;
40256;SDS011;25977;45.462;9.210;2022-10-30T16:24:24;10.23;;;6.90;;
40256;SDS011;25977;45.462;9.210;2022-10-30T16:29:56;15.77;;;6.80;;
40256;SDS011;25977;45.462;9.210;2022-10-30T16:32:23;20.60;;;8.13;;
40256;SDS011;25977;45.462;9.210;2022-10-30T16:34:57;14.65;;;6.38;;
40256;SDS011;25977;45.462;9.210;2022-10-30T16:37:26;14.88;;;7.40;;
40256;SDS011;25977;45.462;9.210;2022-10-30T16:39:57;13.88;;;6.78;;
40256;SDS011;25977;45.462;9.210;2022-10-30T16:42:26;19.35;;;8.55;;
40256;SDS011;25977;45.462;9.210;2022-10-30T16:45:02;16.33;;;7.53;;
40256;SDS011;25977;45.462;9.210;2022-10-30T16:47:30;14.52;;;7.20;;
40256;SDS011;25977;45.462;9.210;2022-10-30T16:49:56;16.13;;;8.73;;
40256;SDS011;25977;45.462;9.210;2022-10-30T16:52:33;17.63;;;7.88;;
40256;SDS011;25977;45.462;9.210;2022-10-30T16:55:13;16.20;;;8.00;;
40256;SDS011;25977;45.462;9.210;2022-10-30T16:57:44;16.38;;;7.57;;
40256;SDS011;25977;45.462;9.210;2022-10-30T17:00:23;22.40;;;9.00;;
40256;SDS011;25977;45.462;9.210;2022-10-30T17:02:51;19.45;;;7.97;;
40256;SDS011;25977;45.462;9.210;2022-10-30T17:05:27;17.13;;;8.30;;
40256;SDS011;25977;45.462;9.210;2022-10-30T17:07:56;14.77;;;6.63;;
40256;SDS011;25977;45.462;9.210;2022-10-30T17:15:58;20.15;;;7.63;;
40256;SDS011;25977;45.462;9.210;2022-10-30T17:18:43;18.65;;;7.35;;
40256;SDS011;25977;45.462;9.210;2022-10-30T17:23:43;12.43;;;8.05;;
40256;SDS011;25977;45.462;9.210;2022-10-30T17:26:35;14.38;;;7.80;;
40256;SDS011;25977;45.462;9.210;2022-10-30T17:29:05;17.75;;;8.57;;
40256;SDS011;25977;45.462;9.210;2022-10-30T17:34:03;15.45;;;8.75;;
40256;SDS011;25977;45.462;9.210;2022-10-30T17:36:36;15.70;;;8.57;;